Etusivu
METAR-TAF:

METAR-TAF

Lentoasemat :

Ephrata Municipal Airport

Ephrata, Washington, Yhdysvallat

Leveyspiiri: 47-18-27N, Pituuspiiri: 119-30-57W, korkeus merenpinnasta: 389 m

Tämänhetkinen sää

Tämä raportti tehtiin 10 minuuttia sitten, kello 12.53 UTC
Tuuli 6 kn etelästä
Lämpötila 5°C
Kosteus 93%
Ilmanpaine 1018 hPa
Näkyvyys: 0.8 km
sumua

METAR: KEPH 151253Z AUTO 17006KT 1/2SM FG VV002 05/04 A3006 RMK AO2 SLP186 T00500039 $

Aika: 05:03 (13:03 UTC)


TAF: puuttuu

Säähavainnot ja -ennusteet yli 4000 lentoasemalta (METAR- ja TAF-raportit).

Käytössä olevat sääasemat on merkitty karttaan keltaisilla ja punaisilla pisteillä.

Aseta hiiri pisteen päälle nähdäksesi sääaseman nimen.

Klikkaa sitten nähdäksesi säähavainnot ja -ennusteet.

Kartan vaihtaminen: klikkaa mustalla rastilla varustettuja vihreitä pisteitä, niin voit zoomata sisään; viivalla varustettua vihreää pistettä, niin voit zoomata ulos tai vihreitä nuolia, niin pääset viereisille kartoille.


METAR-TAF: